Airfield :
LOGIN :

Register | Disclaimer

   EN    FR    IT 

 










Legend :    VFR   Marginal VFR   IFR   Intensive IFR   Very Intensive IFR
Visi :
Ceiling :
>= 8 km
>= 3000ft
5 to 8 km
1000 to 3000 ft
1500m to 5 km
500 to 1000 ft
800 to 1500m
200 to 500 ft
< 800m
< 200 ft
Symbols :   Thunderstorms  Fog  Heavy snow  Heavy precipitations  Wind > 20 kt
SIGMETs :     Misc.  Thunderstorms  Icing  Turbulence  Mountain Waves  Volcanic Ashes







- Airport Elevation : 1197 ft
- IATA code : SPM


ETAD - Spangdahlem Ab

CURRENT METAR :
  • 240056Z AUTO 23011KT 9999 OVC003 07/07 A3018 RMK AO2 RAE03RAB43E52 SLP219 P0000 T00720068 TSNO $

EXPIRED METARs :
  • 240043Z AUTO 23012KT 9999 -RA OVC003 07/07 A3018 RMK AO2 RAE03RAB43 SLP219 TSNO $
  • 240018Z AUTO 23013KT 9999 OVC003 07/07 A3018 RMK AO2 RAE03 SLP221 TSNO $
  • 240003Z AUTO 23012KT 9999 OVC002 07/07 A3018 RMK AO2 RAE03 SLP221 TSNO $
  • 232356Z AUTO 24013KT 9999 -RA OVC002 07/07 A3018 RMK AO2 RAB08E40DZB40E42RAB42 SLP221 P0002 60002 T00700066 10070 20059 55003 TSNO $
  • 232338Z AUTO 24011KT 8000 -RA BR OVC002 07/07 A3019 RMK AO2 RAB08 SLP224 TSNO $
  • 232323Z AUTO 24011KT 6000 -RA BR OVC002 07/06 A3018 RMK AO2 RAB08 SLP221 TSNO $
  • 232308Z AUTO 24011KT 8000 -RA BR OVC002 07/06 A3018 RMK AO2 RAB08 SLP221 TSNO $
  • 232256Z AUTO 24012KT 9000 BR OVC002 07/06 A3018 RMK AO2 RAE02RAB10E23DZB23E24RAB24E34 SLP221 P0000 T00660062 400670026 TSNO $

TAF AMD TAF ETAD
Valid from the 23 at 20:00 until the 25 at 01:00 UTC


232041Z 2320/2501 21012KT 9999 BKN006 610702 QNH3018INS
BECMG 2323/2324 21009KT 9999 BKN015 QNH3011INS
BECMG 2410/2411 21012G20KT 9000 -SHRA OVC010 QNH3000INS
BECMG 2417/2418 22015G25KT 8000 -SHRA OVC015 QNH2997INS TX09/2415Z TN06/2320Z LAST NO AMDS AFT 2321 NEXT 2403
No reported NOTAMs for that airfield.



MET'MAP, your aeronautical weather chart ! - Copyright ORBIFLY December 2007 - Disclaimer

ORBIFLY MET'MAP TEAM :

Programming & Development : Alexandra Zaïnal
Concept & Development : Baudouin d'Aumeries
Co-Development & Prog : Marc-Olivier Méhu
Technical & hardware support : Manuel Goepfert

Contact : metmap@orbifly.com




SOURCES & CREDITS :

   NOAA